sensor_id;sensor_type;location;lat;lon;timestamp;pressure;altitude;pressure_sealevel;temperature;humidity
34742;BME280;20968;42.696;23.360;2023-04-28T00:00:24;95452.94;;;8.80;49.10
34742;BME280;20968;42.696;23.360;2023-04-28T00:02:49;95455.69;;;8.80;49.53
34742;BME280;20968;42.696;23.360;2023-04-28T00:05:14;95467.88;;;8.79;49.01
34742;BME280;20968;42.696;23.360;2023-04-28T00:07:40;95474.28;;;8.85;49.18
34742;BME280;20968;42.696;23.360;2023-04-28T00:10:06;95472.28;;;8.86;48.66
34742;BME280;20968;42.696;23.360;2023-04-28T00:12:31;95472.59;;;8.79;49.33
34742;BME280;20968;42.696;23.360;2023-04-28T00:14:57;95463.78;;;8.66;49.17
34742;BME280;20968;42.696;23.360;2023-04-28T00:17:22;95470.94;;;8.72;49.34
34742;BME280;20968;42.696;23.360;2023-04-28T00:19:49;95474.75;;;8.75;49.34
34742;BME280;20968;42.696;23.360;2023-04-28T00:22:14;95475.81;;;8.77;49.73
34742;BME280;20968;42.696;23.360;2023-04-28T00:24:40;95465.47;;;8.72;49.31
34742;BME280;20968;42.696;23.360;2023-04-28T00:27:06;95469.88;;;8.70;49.28
34742;BME280;20968;42.696;23.360;2023-04-28T00:29:31;95478.41;;;8.63;49.77
34742;BME280;20968;42.696;23.360;2023-04-28T00:31:57;95466.53;;;8.66;50.11
34742;BME280;20968;42.696;23.360;2023-04-28T00:34:40;95478.13;;;8.61;49.68
34742;BME280;20968;42.696;23.360;2023-04-28T00:37:09;95467.72;;;8.47;49.87
34742;BME280;20968;42.696;23.360;2023-04-28T00:39:37;95484.34;;;8.52;50.13
34742;BME280;20968;42.696;23.360;2023-04-28T00:42:04;95484.66;;;8.46;50.78
34742;BME280;20968;42.696;23.360;2023-04-28T00:44:29;95477.63;;;8.36;50.57
34742;BME280;20968;42.696;23.360;2023-04-28T00:46:55;95474.59;;;8.34;50.41
34742;BME280;20968;42.696;23.360;2023-04-28T00:49:21;95476.13;;;8.35;50.51
34742;BME280;20968;42.696;23.360;2023-04-28T00:51:47;95476.41;;;8.28;51.06
34742;BME280;20968;42.696;23.360;2023-04-28T00:54:13;95485.13;;;8.35;51.27
34742;BME280;20968;42.696;23.360;2023-04-28T00:56:38;95479.16;;;8.19;50.75
34742;BME280;20968;42.696;23.360;2023-04-28T00:59:04;95472.59;;;8.25;50.39
34742;BME280;20968;42.696;23.360;2023-04-28T01:01:29;95482.22;;;8.39;50.63
34742;BME280;20968;42.696;23.360;2023-04-28T01:03:57;95494.84;;;8.27;50.49
34742;BME280;20968;42.696;23.360;2023-04-28T01:06:27;95489.38;;;8.27;51.11
34742;BME280;20968;42.696;23.360;2023-04-28T01:08:54;95497.75;;;8.24;50.94
34742;BME280;20968;42.696;23.360;2023-04-28T01:11:20;95485.56;;;8.25;51.40
34742;BME280;20968;42.696;23.360;2023-04-28T01:13:45;95488.47;;;8.30;50.76
34742;BME280;20968;42.696;23.360;2023-04-28T01:16:12;95503.22;;;8.24;51.90
34742;BME280;20968;42.696;23.360;2023-04-28T01:18:45;95498.97;;;8.32;51.15
34742;BME280;20968;42.696;23.360;2023-04-28T01:21:24;95502.63;;;8.29;51.24
34742;BME280;20968;42.696;23.360;2023-04-28T01:23:50;95506.47;;;8.31;51.14
34742;BME280;20968;42.696;23.360;2023-04-28T01:26:16;95503.69;;;8.22;51.48
34742;BME280;20968;42.696;23.360;2023-04-28T01:28:45;95506.16;;;8.29;51.11
34742;BME280;20968;42.696;23.360;2023-04-28T01:31:11;95505.66;;;8.22;50.88
34742;BME280;20968;42.696;23.360;2023-04-28T01:33:36;95497.72;;;8.15;50.89
34742;BME280;20968;42.696;23.360;2023-04-28T01:36:12;95499.44;;;8.21;50.97
34742;BME280;20968;42.696;23.360;2023-04-28T01:38:39;95501.66;;;8.05;51.27
34742;BME280;20968;42.696;23.360;2023-04-28T01:41:10;95489.44;;;7.97;51.33
34742;BME280;20968;42.696;23.360;2023-04-28T01:43:41;95491.75;;;8.07;51.30
34742;BME280;20968;42.696;23.360;2023-04-28T01:46:09;95498.59;;;8.03;52.19
34742;BME280;20968;42.696;23.360;2023-04-28T01:48:35;95498.28;;;8.01;51.55
34742;BME280;20968;42.696;23.360;2023-04-28T01:51:01;95509.13;;;8.13;51.39
34742;BME280;20968;42.696;23.360;2023-04-28T01:53:41;95490.41;;;8.12;51.59
34742;BME280;20968;42.696;23.360;2023-04-28T01:56:10;95508.94;;;7.99;51.27
34742;BME280;20968;42.696;23.360;2023-04-28T01:58:45;95496.44;;;7.98;51.30
34742;BME280;20968;42.696;23.360;2023-04-28T02:01:15;95495.53;;;8.01;51.41
34742;BME280;20968;42.696;23.360;2023-04-28T02:03:40;95507.13;;;8.14;50.90
34742;BME280;20968;42.696;23.360;2023-04-28T02:06:12;95506.06;;;8.11;51.65
34742;BME280;20968;42.696;23.360;2023-04-28T02:08:37;95505.94;;;8.15;50.65
34742;BME280;20968;42.696;23.360;2023-04-28T02:11:03;95494.63;;;8.13;50.75
34742;BME280;20968;42.696;23.360;2023-04-28T02:13:29;95497.38;;;8.13;51.77
34742;BME280;20968;42.696;23.360;2023-04-28T02:15:59;95501.09;;;8.19;51.14
34742;BME280;20968;42.696;23.360;2023-04-28T02:18:30;95517.28;;;8.35;50.90
34742;BME280;20968;42.696;23.360;2023-04-28T02:20:56;95517.25;;;8.26;50.90
34742;BME280;20968;42.696;23.360;2023-04-28T02:23:30;95527.00;;;8.18;50.99
34742;BME280;20968;42.696;23.360;2023-04-28T02:26:02;95520.84;;;8.14;50.95
34742;BME280;20968;42.696;23.360;2023-04-28T02:28:31;95533.09;;;8.22;50.68
34742;BME280;20968;42.696;23.360;2023-04-28T02:31:05;95518.22;;;8.01;50.78
34742;BME280;20968;42.696;23.360;2023-04-28T02:33:31;95530.88;;;8.08;51.18
34742;BME280;20968;42.696;23.360;2023-04-28T02:35:59;95517.00;;;8.02;50.79
34742;BME280;20968;42.696;23.360;2023-04-28T02:38:25;95529.06;;;8.05;50.91
34742;BME280;20968;42.696;23.360;2023-04-28T02:40:58;95532.88;;;8.07;50.62
34742;BME280;20968;42.696;23.360;2023-04-28T02:43:26;95529.19;;;8.01;51.74
34742;BME280;20968;42.696;23.360;2023-04-28T02:45:58;95519.44;;;7.91;50.54
34742;BME280;20968;42.696;23.360;2023-04-28T02:48:24;95530.53;;;7.88;51.42
34742;BME280;20968;42.696;23.360;2023-04-28T02:50:50;95531.75;;;7.87;51.09
34742;BME280;20968;42.696;23.360;2023-04-28T02:53:18;95545.91;;;7.85;51.41
34742;BME280;20968;42.696;23.360;2023-04-28T02:55:44;95534.63;;;7.83;51.36
34742;BME280;20968;42.696;23.360;2023-04-28T02:58:10;95540.69;;;7.78;51.28
34742;BME280;20968;42.696;23.360;2023-04-28T03:00:41;95535.38;;;7.84;51.46
34742;BME280;20968;42.696;23.360;2023-04-28T03:03:08;95546.84;;;7.91;51.67
34742;BME280;20968;42.696;23.360;2023-04-28T03:05:35;95538.13;;;7.84;51.42
34742;BME280;20968;42.696;23.360;2023-04-28T03:08:13;95530.81;;;7.81;51.47
34742;BME280;20968;42.696;23.360;2023-04-28T03:10:38;95549.97;;;7.72;51.49
34742;BME280;20968;42.696;23.360;2023-04-28T03:13:08;95545.19;;;7.64;51.97
34742;BME280;20968;42.696;23.360;2023-04-28T03:15:38;95540.31;;;7.59;51.68
34742;BME280;20968;42.696;23.360;2023-04-28T03:18:09;95555.41;;;7.63;52.13
34742;BME280;20968;42.696;23.360;2023-04-28T03:20:34;95548.66;;;7.55;52.26
34742;BME280;20968;42.696;23.360;2023-04-28T03:23:00;95557.53;;;7.59;51.81
34742;BME280;20968;42.696;23.360;2023-04-28T03:25:26;95551.41;;;7.55;52.04
34742;BME280;20968;42.696;23.360;2023-04-28T03:27:52;95563.47;;;7.67;51.54
34742;BME280;20968;42.696;23.360;2023-04-28T03:30:22;95572.44;;;7.67;51.90
34742;BME280;20968;42.696;23.360;2023-04-28T03:32:51;95578.91;;;7.73;51.94
34742;BME280;20968;42.696;23.360;2023-04-28T03:35:25;95582.56;;;7.79;51.70
34742;BME280;20968;42.696;23.360;2023-04-28T03:37:50;95577.84;;;7.79;51.32
34742;BME280;20968;42.696;23.360;2023-04-28T03:40:17;95582.31;;;7.86;51.17
34742;BME280;20968;42.696;23.360;2023-04-28T03:42:42;95587.03;;;7.94;51.08
34742;BME280;20968;42.696;23.360;2023-04-28T03:45:16;95592.09;;;7.96;51.74
34742;BME280;20968;42.696;23.360;2023-04-28T03:47:41;95596.84;;;8.04;51.43
34742;BME280;20968;42.696;23.360;2023-04-28T03:50:07;95596.50;;;7.93;50.89
34742;BME280;20968;42.696;23.360;2023-04-28T03:52:32;95602.47;;;8.01;51.52
34742;BME280;20968;42.696;23.360;2023-04-28T03:54:58;95591.72;;;7.85;50.87
34742;BME280;20968;42.696;23.360;2023-04-28T03:57:23;95604.69;;;7.84;50.63
34742;BME280;20968;42.696;23.360;2023-04-28T03:59:49;95613.34;;;7.83;50.72
34742;BME280;20968;42.696;23.360;2023-04-28T04:02:15;95617.75;;;7.80;50.95
34742;BME280;20968;42.696;23.360;2023-04-28T04:04:40;95618.53;;;7.81;50.75
34742;BME280;20968;42.696;23.360;2023-04-28T04:07:05;95612.59;;;7.82;50.85
34742;BME280;20968;42.696;23.360;2023-04-28T04:09:31;95614.66;;;7.70;50.59
34742;BME280;20968;42.696;23.360;2023-04-28T04:11:56;95624.56;;;7.76;51.22
34742;BME280;20968;42.696;23.360;2023-04-28T04:14:23;95626.38;;;7.70;50.92
34742;BME280;20968;42.696;23.360;2023-04-28T04:16:48;95619.88;;;7.76;50.54
34742;BME280;20968;42.696;23.360;2023-04-28T04:19:14;95621.53;;;8.04;61.24
34742;BME280;20968;42.696;23.360;2023-04-28T04:21:39;95632.53;;;8.52;57.50
34742;BME280;20968;42.696;23.360;2023-04-28T04:24:09;95636.28;;;8.85;55.84
34742;BME280;20968;42.696;23.360;2023-04-28T04:26:37;95644.09;;;9.14;51.49
34742;BME280;20968;42.696;23.360;2023-04-28T04:29:02;95632.81;;;9.29;56.84
34742;BME280;20968;42.696;23.360;2023-04-28T04:31:27;95637.31;;;9.68;57.18
34742;BME280;20968;42.696;23.360;2023-04-28T04:33:53;95645.13;;;9.79;52.09
34742;BME280;20968;42.696;23.360;2023-04-28T04:36:18;95643.75;;;9.65;46.08
34742;BME280;20968;42.696;23.360;2023-04-28T04:38:44;95637.69;;;9.34;47.10
34742;BME280;20968;42.696;23.360;2023-04-28T04:41:09;95641.03;;;9.12;47.31
34742;BME280;20968;42.696;23.360;2023-04-28T04:43:35;95640.72;;;9.01;47.06
34742;BME280;20968;42.696;23.360;2023-04-28T04:46:00;95648.50;;;8.93;47.34
34742;BME280;20968;42.696;23.360;2023-04-28T04:48:28;95653.94;;;8.75;48.32
34742;BME280;20968;42.696;23.360;2023-04-28T04:50:53;95656.38;;;8.73;47.56
34742;BME280;20968;42.696;23.360;2023-04-28T04:53:19;95655.75;;;8.60;47.94
34742;BME280;20968;42.696;23.360;2023-04-28T04:55:45;95646.91;;;8.56;48.61
34742;BME280;20968;42.696;23.360;2023-04-28T04:58:10;95665.78;;;8.54;48.02
34742;BME280;20968;42.696;23.360;2023-04-28T05:00:37;95667.88;;;8.50;48.64
34742;BME280;20968;42.696;23.360;2023-04-28T05:03:02;95664.56;;;8.55;47.99
34742;BME280;20968;42.696;23.360;2023-04-28T05:05:30;95668.06;;;8.56;48.11
34742;BME280;20968;42.696;23.360;2023-04-28T05:07:55;95670.25;;;8.61;48.30
34742;BME280;20968;42.696;23.360;2023-04-28T05:10:21;95679.25;;;8.70;47.76
34742;BME280;20968;42.696;23.360;2023-04-28T05:12:46;95664.31;;;8.71;48.69
34742;BME280;20968;42.696;23.360;2023-04-28T05:15:12;95677.94;;;8.84;47.23
34742;BME280;20968;42.696;23.360;2023-04-28T05:17:37;95662.19;;;8.84;48.24
34742;BME280;20968;42.696;23.360;2023-04-28T05:20:03;95676.41;;;8.92;46.83
34742;BME280;20968;42.696;23.360;2023-04-28T05:22:28;95681.91;;;9.01;47.15
34742;BME280;20968;42.696;23.360;2023-04-28T05:24:55;95667.72;;;9.02;47.09
34742;BME280;20968;42.696;23.360;2023-04-28T05:27:21;95665.00;;;9.11;46.77
34742;BME280;20968;42.696;23.360;2023-04-28T05:29:46;95670.63;;;9.17;46.73
34742;BME280;20968;42.696;23.360;2023-04-28T05:32:12;95675.38;;;9.16;46.67
34742;BME280;20968;42.696;23.360;2023-04-28T05:34:37;95678.75;;;9.11;45.31
34742;BME280;20968;42.696;23.360;2023-04-28T05:37:02;95660.88;;;9.07;46.91
34742;BME280;20968;42.696;23.360;2023-04-28T05:39:28;95662.72;;;9.19;47.18
34742;BME280;20968;42.696;23.360;2023-04-28T05:42:06;95668.22;;;9.27;46.26
34742;BME280;20968;42.696;23.360;2023-04-28T05:44:31;95669.59;;;9.32;46.68
34742;BME280;20968;42.696;23.360;2023-04-28T05:46:56;95663.16;;;9.44;47.05
34742;BME280;20968;42.696;23.360;2023-04-28T05:49:22;95663.47;;;9.46;46.75
34742;BME280;20968;42.696;23.360;2023-04-28T05:51:48;95668.81;;;9.67;46.12
34742;BME280;20968;42.696;23.360;2023-04-28T05:54:13;95663.47;;;9.64;45.17
34742;BME280;20968;42.696;23.360;2023-04-28T05:56:39;95664.22;;;9.64;45.98
34742;BME280;20968;42.696;23.360;2023-04-28T05:59:10;95666.97;;;9.64;46.67
34742;BME280;20968;42.696;23.360;2023-04-28T06:01:35;95669.13;;;9.60;45.94
34742;BME280;20968;42.696;23.360;2023-04-28T06:04:03;95669.41;;;9.71;46.52
34742;BME280;20968;42.696;23.360;2023-04-28T06:09:57;95668.47;;;10.01;45.79
34742;BME280;20968;42.696;23.360;2023-04-28T06:12:32;95676.53;;;10.13;44.98
34742;BME280;20968;42.696;23.360;2023-04-28T06:15:04;95676.19;;;10.29;44.99
34742;BME280;20968;42.696;23.360;2023-04-28T06:17:29;95671.84;;;10.46;44.97
34742;BME280;20968;42.696;23.360;2023-04-28T06:19:57;95666.47;;;10.52;44.75
34742;BME280;20968;42.696;23.360;2023-04-28T06:22:24;95677.47;;;10.52;44.40
34742;BME280;20968;42.696;23.360;2023-04-28T06:24:49;95678.84;;;10.56;44.51
34742;BME280;20968;42.696;23.360;2023-04-28T06:27:15;95675.63;;;10.58;44.14
34742;BME280;20968;42.696;23.360;2023-04-28T06:29:41;95668.72;;;10.62;44.19
34742;BME280;20968;42.696;23.360;2023-04-28T06:32:06;95674.91;;;10.81;43.73
34742;BME280;20968;42.696;23.360;2023-04-28T06:34:33;95676.16;;;11.26;50.11
34742;BME280;20968;42.696;23.360;2023-04-28T06:36:58;95677.72;;;11.42;42.14
34742;BME280;20968;42.696;23.360;2023-04-28T06:39:24;95673.50;;;11.55;42.44
34742;BME280;20968;42.696;23.360;2023-04-28T06:41:49;95663.88;;;11.51;42.36
34742;BME280;20968;42.696;23.360;2023-04-28T06:44:15;95667.50;;;11.57;41.76
34742;BME280;20968;42.696;23.360;2023-04-28T06:46:40;95670.06;;;11.83;44.80
34742;BME280;20968;42.696;23.360;2023-04-28T06:49:06;95675.38;;;12.01;41.94
34742;BME280;20968;42.696;23.360;2023-04-28T06:51:32;95672.13;;;11.88;41.18
34742;BME280;20968;42.696;23.360;2023-04-28T06:53:58;95675.75;;;11.80;39.94
34742;BME280;20968;42.696;23.360;2023-04-28T06:56:23;95662.97;;;11.54;40.09
34742;BME280;20968;42.696;23.360;2023-04-28T06:58:49;95675.31;;;11.58;41.29
34742;BME280;20968;42.696;23.360;2023-04-28T07:01:15;95667.50;;;11.57;41.87
34742;BME280;20968;42.696;23.360;2023-04-28T07:03:41;95668.09;;;11.61;41.21
34742;BME280;20968;42.696;23.360;2023-04-28T07:06:06;95668.78;;;11.70;41.16
34742;BME280;20968;42.696;23.360;2023-04-28T07:08:32;95678.22;;;11.92;41.22
34742;BME280;20968;42.696;23.360;2023-04-28T07:10:57;95675.38;;;11.87;41.47
34742;BME280;20968;42.696;23.360;2023-04-28T07:13:22;95667.47;;;11.94;41.61
34742;BME280;20968;42.696;23.360;2023-04-28T07:15:48;95667.69;;;12.05;40.98
34742;BME280;20968;42.696;23.360;2023-04-28T07:18:13;95667.00;;;12.10;40.67
34742;BME280;20968;42.696;23.360;2023-04-28T07:20:39;95656.16;;;12.21;40.65
34742;BME280;20968;42.696;23.360;2023-04-28T07:23:05;95668.91;;;12.33;39.94
34742;BME280;20968;42.696;23.360;2023-04-28T07:25:30;95671.97;;;12.35;38.09
34742;BME280;20968;42.696;23.360;2023-04-28T07:27:56;95655.28;;;12.30;39.62
34742;BME280;20968;42.696;23.360;2023-04-28T07:30:21;95659.00;;;12.41;39.54
34742;BME280;20968;42.696;23.360;2023-04-28T07:32:47;95659.38;;;12.48;38.16
34742;BME280;20968;42.696;23.360;2023-04-28T07:35:14;95656.03;;;12.59;39.08
34742;BME280;20968;42.696;23.360;2023-04-28T07:37:41;95656.16;;;12.84;37.92
34742;BME280;20968;42.696;23.360;2023-04-28T07:40:07;95656.66;;;12.83;37.47
34742;BME280;20968;42.696;23.360;2023-04-28T07:42:33;95653.91;;;13.17;37.86
34742;BME280;20968;42.696;23.360;2023-04-28T07:44:58;95655.19;;;13.41;37.86
34742;BME280;20968;42.696;23.360;2023-04-28T07:47:24;95663.22;;;13.39;36.14
34742;BME280;20968;42.696;23.360;2023-04-28T07:49:49;95660.66;;;13.36;36.46
34742;BME280;20968;42.696;23.360;2023-04-28T07:52:15;95658.38;;;13.54;36.94
34742;BME280;20968;42.696;23.360;2023-04-28T07:54:40;95650.81;;;13.75;36.66
34742;BME280;20968;42.696;23.360;2023-04-28T07:57:06;95653.66;;;13.80;35.89
34742;BME280;20968;42.696;23.360;2023-04-28T07:59:34;95660.97;;;13.83;35.53
34742;BME280;20968;42.696;23.360;2023-04-28T08:02:00;95656.34;;;14.00;34.80
34742;BME280;20968;42.696;23.360;2023-04-28T08:04:26;95651.31;;;13.98;35.11
34742;BME280;20968;42.696;23.360;2023-04-28T08:06:52;95661.91;;;14.00;34.81
34742;BME280;20968;42.696;23.360;2023-04-28T08:09:18;95653.25;;;14.12;33.80
34742;BME280;20968;42.696;23.360;2023-04-28T08:11:43;95650.81;;;14.20;34.65
34742;BME280;20968;42.696;23.360;2023-04-28T08:14:09;95650.59;;;14.23;33.68
34742;BME280;20968;42.696;23.360;2023-04-28T08:16:34;95656.88;;;14.24;33.16
34742;BME280;20968;42.696;23.360;2023-04-28T08:19:03;95659.66;;;14.24;33.59
34742;BME280;20968;42.696;23.360;2023-04-28T08:21:28;95651.88;;;14.28;34.68
34742;BME280;20968;42.696;23.360;2023-04-28T08:23:53;95650.25;;;14.16;34.19
34742;BME280;20968;42.696;23.360;2023-04-28T08:26:19;95657.91;;;14.26;33.75
34742;BME280;20968;42.696;23.360;2023-04-28T08:28:44;95650.63;;;14.29;33.88
34742;BME280;20968;42.696;23.360;2023-04-28T08:31:10;95643.59;;;14.33;33.36
34742;BME280;20968;42.696;23.360;2023-04-28T08:33:35;95655.25;;;14.74;34.38
34742;BME280;20968;42.696;23.360;2023-04-28T08:36:01;95644.94;;;14.74;32.70
34742;BME280;20968;42.696;23.360;2023-04-28T08:38:26;95641.81;;;14.97;33.61
34742;BME280;20968;42.696;23.360;2023-04-28T08:40:52;95646.97;;;15.15;33.35
34742;BME280;20968;42.696;23.360;2023-04-28T08:43:24;95648.16;;;15.45;33.13
34742;BME280;20968;42.696;23.360;2023-04-28T08:45:49;95643.78;;;15.28;32.12
34742;BME280;20968;42.696;23.360;2023-04-28T08:48:19;95647.94;;;15.07;32.74
34742;BME280;20968;42.696;23.360;2023-04-28T08:50:50;95646.28;;;15.26;32.89
34742;BME280;20968;42.696;23.360;2023-04-28T08:53:24;95632.34;;;15.20;31.90
34742;BME280;20968;42.696;23.360;2023-04-28T08:55:56;95633.44;;;15.28;33.00
34742;BME280;20968;42.696;23.360;2023-04-28T08:58:23;95631.09;;;15.74;32.86
34742;BME280;20968;42.696;23.360;2023-04-28T09:00:50;95634.66;;;15.80;31.70
34742;BME280;20968;42.696;23.360;2023-04-28T09:03:15;95623.13;;;15.34;31.79
34742;BME280;20968;42.696;23.360;2023-04-28T09:05:41;95629.06;;;15.69;33.02
34742;BME280;20968;42.696;23.360;2023-04-28T09:08:07;95632.19;;;16.09;33.28
34742;BME280;20968;42.696;23.360;2023-04-28T09:10:32;95626.19;;;16.38;32.71
34742;BME280;20968;42.696;23.360;2023-04-28T09:12:58;95626.41;;;16.78;32.51
34742;BME280;20968;42.696;23.360;2023-04-28T09:15:34;95621.13;;;16.97;29.83
34742;BME280;20968;42.696;23.360;2023-04-28T09:18:02;95608.41;;;17.07;31.52
34742;BME280;20968;42.696;23.360;2023-04-28T09:20:29;95594.69;;;17.25;30.96
34742;BME280;20968;42.696;23.360;2023-04-28T09:22:56;95614.44;;;17.38;29.29
34742;BME280;20968;42.696;23.360;2023-04-28T09:25:36;95601.44;;;17.62;29.57
34742;BME280;20968;42.696;23.360;2023-04-28T09:28:19;95610.31;;;17.61;28.57
34742;BME280;20968;42.696;23.360;2023-04-28T09:30:45;95602.31;;;17.19;28.83
34742;BME280;20968;42.696;23.360;2023-04-28T09:33:10;95598.88;;;16.75;29.93
34742;BME280;20968;42.696;23.360;2023-04-28T09:35:40;95600.63;;;16.83;29.46
34742;BME280;20968;42.696;23.360;2023-04-28T09:38:05;95605.47;;;16.77;29.77
34742;BME280;20968;42.696;23.360;2023-04-28T09:40:31;95601.19;;;16.54;30.23
34742;BME280;20968;42.696;23.360;2023-04-28T09:42:58;95591.06;;;16.62;30.54
34742;BME280;20968;42.696;23.360;2023-04-28T09:45:23;95586.25;;;16.74;30.43
34742;BME280;20968;42.696;23.360;2023-04-28T09:47:50;95583.22;;;16.66;30.07
34742;BME280;20968;42.696;23.360;2023-04-28T09:50:16;95587.47;;;16.89;29.38
34742;BME280;20968;42.696;23.360;2023-04-28T09:52:44;95594.03;;;16.97;29.12
34742;BME280;20968;42.696;23.360;2023-04-28T09:55:13;95585.66;;;17.08;29.31
34742;BME280;20968;42.696;23.360;2023-04-28T09:57:39;95569.09;;;17.43;30.04
34742;BME280;20968;42.696;23.360;2023-04-28T10:00:06;95573.03;;;17.69;29.20
34742;BME280;20968;42.696;23.360;2023-04-28T10:02:34;95564.94;;;17.66;29.01
34742;BME280;20968;42.696;23.360;2023-04-28T10:05:00;95562.16;;;17.66;28.70
34742;BME280;20968;42.696;23.360;2023-04-28T10:07:26;95564.81;;;17.88;28.93
34742;BME280;20968;42.696;23.360;2023-04-28T10:09:52;95550.69;;;18.15;28.32
34742;BME280;20968;42.696;23.360;2023-04-28T10:12:20;95563.38;;;18.10;26.35
34742;BME280;20968;42.696;23.360;2023-04-28T10:14:47;95555.44;;;18.25;27.44
34742;BME280;20968;42.696;23.360;2023-04-28T10:17:19;95554.75;;;18.14;29.35
34742;BME280;20968;42.696;23.360;2023-04-28T10:19:47;95558.88;;;18.42;27.53
34742;BME280;20968;42.696;23.360;2023-04-28T10:22:46;95539.09;;;18.70;27.86
34742;BME280;20968;42.696;23.360;2023-04-28T10:25:32;95547.34;;;18.22;25.83
34742;BME280;20968;42.696;23.360;2023-04-28T10:28:00;95554.63;;;17.95;26.21
34742;BME280;20968;42.696;23.360;2023-04-28T10:30:29;95552.44;;;17.78;26.70
34742;BME280;20968;42.696;23.360;2023-04-28T10:38:12;95535.94;;;18.25;26.20
34742;BME280;20968;42.696;23.360;2023-04-28T10:43:05;95510.31;;;18.80;27.41
34742;BME280;20968;42.696;23.360;2023-04-28T10:48:18;95522.75;;;19.27;26.03
34742;BME280;20968;42.696;23.360;2023-04-28T10:56:25;95509.97;;;19.13;25.24
34742;BME280;20968;42.696;23.360;2023-04-28T10:58:59;95509.44;;;19.33;25.79
34742;BME280;20968;42.696;23.360;2023-04-28T11:04:04;95498.16;;;19.44;24.81
34742;BME280;20968;42.696;23.360;2023-04-28T11:06:38;95505.13;;;19.13;23.54
34742;BME280;20968;42.696;23.360;2023-04-28T11:16:55;95488.53;;;19.76;24.46
34742;BME280;20968;42.696;23.360;2023-04-28T11:19:31;95486.03;;;19.91;23.37
34742;BME280;20968;42.696;23.360;2023-04-28T11:22:06;95484.53;;;19.71;23.74
34742;BME280;20968;42.696;23.360;2023-04-28T11:24:37;95471.84;;;19.70;23.94
34742;BME280;20968;42.696;23.360;2023-04-28T11:27:03;95472.41;;;20.00;24.84
34742;BME280;20968;42.696;23.360;2023-04-28T11:29:36;95483.19;;;19.96;24.79
34742;BME280;20968;42.696;23.360;2023-04-28T11:32:06;95477.16;;;20.05;24.17
34742;BME280;20968;42.696;23.360;2023-04-28T11:34:32;95467.41;;;19.93;24.18
34742;BME280;20968;42.696;23.360;2023-04-28T11:36:58;95465.63;;;19.96;24.54
34742;BME280;20968;42.696;23.360;2023-04-28T11:39:33;95461.31;;;19.76;25.80
34742;BME280;20968;42.696;23.360;2023-04-28T11:42:01;95462.59;;;19.75;25.71
34742;BME280;20968;42.696;23.360;2023-04-28T11:44:33;95470.56;;;19.53;25.71
34742;BME280;20968;42.696;23.360;2023-04-28T11:47:02;95463.72;;;19.36;25.47
34742;BME280;20968;42.696;23.360;2023-04-28T11:49:41;95456.91;;;19.31;26.69
34742;BME280;20968;42.696;23.360;2023-04-28T11:52:08;95444.66;;;19.16;27.73
34742;BME280;20968;42.696;23.360;2023-04-28T11:54:34;95444.44;;;19.69;26.38
34742;BME280;20968;42.696;23.360;2023-04-28T11:57:00;95453.75;;;19.90;26.64
34742;BME280;20968;42.696;23.360;2023-04-28T11:59:32;95454.44;;;19.77;25.96
34742;BME280;20968;42.696;23.360;2023-04-28T12:02:01;95447.81;;;19.80;25.75
34742;BME280;20968;42.696;23.360;2023-04-28T12:07:04;95441.81;;;19.89;27.12
34742;BME280;20968;42.696;23.360;2023-04-28T12:09:31;95436.09;;;20.13;27.86
34742;BME280;20968;42.696;23.360;2023-04-28T12:12:03;95437.09;;;20.29;25.08
34742;BME280;20968;42.696;23.360;2023-04-28T12:14:32;95441.44;;;19.98;25.93
34742;BME280;20968;42.696;23.360;2023-04-28T12:17:26;95436.03;;;19.69;25.00
34742;BME280;20968;42.696;23.360;2023-04-28T12:19:59;95420.31;;;19.66;25.96
34742;BME280;20968;42.696;23.360;2023-04-28T12:22:25;95411.88;;;19.71;26.40
34742;BME280;20968;42.696;23.360;2023-04-28T12:25:11;95417.13;;;19.44;26.69
34742;BME280;20968;42.696;23.360;2023-04-28T12:27:38;95413.41;;;19.54;26.78
34742;BME280;20968;42.696;23.360;2023-04-28T12:32:47;95407.50;;;19.57;26.83
34742;BME280;20968;42.696;23.360;2023-04-28T12:35:12;95405.66;;;19.47;26.20
34742;BME280;20968;42.696;23.360;2023-04-28T12:37:38;95396.75;;;19.61;26.74
34742;BME280;20968;42.696;23.360;2023-04-28T12:40:05;95390.25;;;19.72;26.70
34742;BME280;20968;42.696;23.360;2023-04-28T12:42:30;95401.56;;;19.30;26.35
34742;BME280;20968;42.696;23.360;2023-04-28T12:44:56;95396.34;;;19.57;26.65
34742;BME280;20968;42.696;23.360;2023-04-28T12:47:21;95388.53;;;19.69;27.60
34742;BME280;20968;42.696;23.360;2023-04-28T12:49:47;95398.53;;;19.77;26.96
34742;BME280;20968;42.696;23.360;2023-04-28T12:52:14;95392.31;;;19.84;26.70
34742;BME280;20968;42.696;23.360;2023-04-28T12:54:40;95378.13;;;20.01;26.15
34742;BME280;20968;42.696;23.360;2023-04-28T12:57:14;95395.19;;;19.97;26.70
34742;BME280;20968;42.696;23.360;2023-04-28T12:59:41;95382.56;;;19.91;25.99
34742;BME280;20968;42.696;23.360;2023-04-28T13:02:06;95369.72;;;20.01;26.82
34742;BME280;20968;42.696;23.360;2023-04-28T13:04:32;95366.41;;;20.15;26.64
34742;BME280;20968;42.696;23.360;2023-04-28T13:06:57;95377.59;;;20.15;26.53
34742;BME280;20968;42.696;23.360;2023-04-28T13:09:24;95368.31;;;20.07;26.32
34742;BME280;20968;42.696;23.360;2023-04-28T13:11:50;95364.88;;;20.01;25.74
34742;BME280;20968;42.696;23.360;2023-04-28T13:14:18;95365.03;;;19.90;26.64
34742;BME280;20968;42.696;23.360;2023-04-28T13:16:43;95362.53;;;20.18;26.50
34742;BME280;20968;42.696;23.360;2023-04-28T13:19:09;95358.31;;;20.12;24.88
34742;BME280;20968;42.696;23.360;2023-04-28T13:21:38;95360.44;;;19.93;25.92
34742;BME280;20968;42.696;23.360;2023-04-28T13:24:06;95349.56;;;19.89;26.37
34742;BME280;20968;42.696;23.360;2023-04-28T13:26:32;95368.38;;;19.57;26.40
34742;BME280;20968;42.696;23.360;2023-04-28T13:28:57;95361.25;;;19.75;26.48
34742;BME280;20968;42.696;23.360;2023-04-28T13:31:23;95359.88;;;19.81;26.58